METAR Data
IDs: Format: Raw Decoded Include TAF

Data at: 0158 UTC 25 Mar 2019

KSLB 250155Z AUTO 02012KT 10SM BKN032 OVC046 06/06 A3012 RMK AO2
KSLB 250135Z AUTO 02012KT 10SM BKN032 BKN075 OVC090 06/06 A3011 RMK AO2
KSLB 250115Z AUTO 03009KT 10SM FEW030 SCT060 OVC090 06/06 A3011 RMK AO2
KSLB 250055Z AUTO 03010KT 10SM BKN029 BKN049 OVC060 07/07 A3010 RMK AO2
KSLB 250035Z AUTO 03010KT 10SM OVC026 07/07 A3009 RMK AO2
KSLB 250015Z AUTO 03010KT 10SM OVC025 08/08 A3009 RMK AO2
KSLB 242355Z AUTO 03008KT 10SM OVC024 08/08 A3007 RMK AO2
KSLB 242335Z AUTO 03008KT 10SM OVC023 08/08 A3007 RMK AO2
KSLB 242315Z AUTO 03009KT 10SM OVC021 08/08 A3007 RMK AO2
KSLB 242255Z AUTO 04008KT 8SM OVC016 08/08 A3006 RMK AO2
KSLB 242235Z AUTO 04010KT 8SM OVC013 08/08 A3006 RMK AO2
KSLB 242215Z AUTO 04014KT 7SM OVC012 08/08 A3005 RMK AO2
KSLB 242155Z AUTO 04010KT 7SM OVC012 08/08 A3004 RMK AO2
KSLB 242135Z AUTO 04010KT 5SM BR SCT012 07/07 A3004 RMK AO2
KSLB 242115Z AUTO 03010KT 5SM BR FEW010 07/07 A3003 RMK AO2
KSLB 242055Z AUTO 04012KT 4SM BR CLR 07/07 A3002 RMK AO2
KSLB 242035Z AUTO 04011G17KT 4SM BR FEW005 07/07 A3002 RMK AO2
KSLB 242015Z AUTO 03012KT 3SM BR SCT004 07/06 A3001 RMK AO2
KSLB 241955Z AUTO 04014KT 3SM BR BKN004 06/06 A3001 RMK AO2
KSLB 241935Z AUTO 03013KT 3SM BR BKN004 06/06 A3001 RMK AO2
KSLB 241915Z AUTO 05013KT 4SM BR SCT004 07/07 A3001 RMK AO2
KSLB 241855Z AUTO 06013KT 3SM BR SCT004 07/07 A3000 RMK AO2 P0001
KSLB 241835Z AUTO 04014KT 2 1/2SM BR BKN004 06/06 A3001 RMK AO2
KSLB 241815Z AUTO 04016KT 1SM BR BKN003 06/06 A3001 RMK AO2
KSLB 241755Z AUTO 03012G18KT 1SM BR BKN003 05/05 A3000 RMK AO2
KSLB 241735Z AUTO 03015KT 1 3/4SM BR OVC003 05/05 A3000 RMK AO2
KSLB 241715Z AUTO 02012KT 2SM BR BKN003 05/05 A3000 RMK AO2
KSLB 241655Z AUTO 03012KT 1 1/2SM BR OVC003 05/05 A3000 RMK AO2
KSLB 241635Z AUTO 04010KT 1 1/2SM BR BKN003 05/05 A3000 RMK AO2
KSLB 241615Z AUTO 05009KT 1SM BR BKN002 05/05 A3000 RMK AO2
KSLB 241555Z AUTO 05008KT M1/4SM FG VV000 05/05 A2999 RMK AO2
KSLB 241535Z AUTO 05009KT M1/4SM FG VV000 05/05 A2999 RMK AO2
KSLB 241515Z AUTO 05009KT M1/4SM FG VV000 04/04 A3000 RMK AO2
KSLB 241455Z AUTO 04010KT M1/4SM FG VV000 04/04 A2999 RMK AO2
KSLB 241435Z AUTO 04010KT M1/4SM FG VV000 04/04 A2998 RMK AO2
KSLB 241415Z AUTO 05011KT M1/4SM -UP VV000 04/04 A2998 RMK AO2
KSLB 241355Z AUTO 06009KT M1/4SM FG VV000 04/04 A2998 RMK AO2
KSLB 241335Z AUTO 05009KT 1/4SM FG BKN002 04/04 A2997 RMK AO2
KSLB 241315Z AUTO 06009KT 1/4SM FG OVC002 04/04 A2997 RMK AO2
KSLB 241255Z AUTO 08008KT 3/4SM BR OVC002 04/04 A2997 RMK AO2
KSLB 241235Z AUTO 08011KT 1/2SM BR OVC002 04/04 A2996 RMK AO2
KSLB 241215Z AUTO 07011KT 1 1/2SM BR OVC002 04/04 A2996 RMK AO2
KSLB 241155Z AUTO 07009KT 1 1/4SM -RA OVC002 04/04 A2996 RMK AO2 P0001
KSLB 241135Z AUTO 06010KT 1 1/4SM BR OVC002 04/04 A2996 RMK AO2
KSLB 241115Z AUTO 08011KT 1/2SM FG BKN002 BKN013 04/04 A2996 RMK AO2
KSLB 241055Z AUTO 05010KT 1/4SM FG OVC002 03/03 A2996 RMK AO2
KSLB 241035Z AUTO 06009KT 1/4SM FG OVC002 03/03 A2996 RMK AO2
KSLB 241015Z AUTO 05009KT 1/2SM BR OVC002 04/04 A2995 RMK AO2
KSLB 240955Z AUTO 06007KT 2SM BR OVC002 04/04 A2996 RMK AO2
KSLB 240935Z AUTO 06008G13KT 2 1/2SM BR BKN002 OVC014 04/04 A2996 RMK AO2
KSLB 240915Z AUTO 07009KT 3SM BR FEW003 BKN015 04/04 A2996 RMK AO2
KSLB 240855Z AUTO 07010KT 6SM BR OVC016 04/04 A2997 RMK AO2
KSLB 240835Z AUTO 07009KT 9SM OVC017 04/04 A2997 RMK AO2
KSLB 240815Z AUTO 07010KT 10SM OVC018 05/05 A2998 RMK AO2
KSLB 240755Z AUTO 07010KT 9SM BKN018 OVC024 05/05 A2998 RMK AO2
KSLB 240735Z AUTO 07008KT 10SM OVC023 05/05 A2998 RMK AO2
KSLB 240715Z AUTO 06008KT 10SM OVC023 05/05 A2999 RMK AO2
KSLB 240655Z AUTO 05008KT 10SM OVC022 05/05 A2998 RMK AO2
KSLB 240635Z AUTO 06009KT 10SM BKN023 OVC031 05/05 A2998 RMK AO2
KSLB 240615Z AUTO 07006KT 10SM OVC031 05/05 A2999 RMK AO2
KSLB 240555Z AUTO 08007KT 10SM OVC030 05/05 A2999 RMK AO2
KSLB 240535Z AUTO 08006KT 10SM OVC027 05/05 A3000 RMK AO2
KSLB 240515Z AUTO 08007KT 10SM OVC027 05/05 A3000 RMK AO2
KSLB 240455Z AUTO 09007KT 10SM OVC030 05/05 A3000 RMK AO2
KSLB 240435Z AUTO 09008KT 10SM SCT029 OVC034 05/05 A3001 RMK AO2
KSLB 240415Z AUTO 08007KT 10SM OVC034 05/05 A3002 RMK AO2
KSLB 240355Z AUTO 10007KT 10SM BKN034 BKN060 OVC110 05/05 A3002 RMK AO2
KSLB 240335Z AUTO 12006KT 10SM FEW033 FEW065 OVC110 05/05 A3002 RMK AO2
KSLB 240315Z AUTO 11007KT 10SM BKN065 OVC110 05/05 A3002 RMK AO2
KSLB 240255Z AUTO 10009KT 10SM OVC060 05/05 A3001 RMK AO2
KSLB 240235Z AUTO 10009KT 10SM OVC060 06/05 A3001 RMK AO2
KSLB 240215Z AUTO 10009KT 10SM OVC060 06/05 A3001 RMK AO2
KSLB 240155Z AUTO 10009KT 10SM BKN060 OVC070 06/05 A3001 RMK AO2
KSLB 240135Z AUTO 11010KT 10SM OVC070 06/05 A3001 RMK AO2
KSLB 240115Z AUTO 11009KT 10SM BKN065 OVC100 06/05 A3001 RMK AO2
KSLB 240055Z AUTO 10012KT 10SM SCT065 BKN075 OVC095 07/04 A3001 RMK AO2
KSLB 240035Z AUTO 10011KT 10SM BKN065 BKN070 07/04 A3002 RMK AO2
KSLB 240015Z AUTO 11009KT 10SM FEW060 BKN070 OVC080 07/05 A3003 RMK AO2
KSLB 232355Z AUTO 10008KT 10SM OVC080 07/05 A3003 RMK AO2
KSLB 232335Z AUTO 12006KT 10SM OVC075 07/05 A3004 RMK AO2
KSLB 232315Z AUTO 13008KT 10SM BKN075 08/05 A3004 RMK AO2
KSLB 232255Z AUTO 07009KT 10SM CLR 08/04 A3002 RMK AO2
KSLB 232235Z AUTO 11010KT 10SM CLR 09/04 A3004 RMK AO2
KSLB 232215Z AUTO 11010KT 10SM CLR 09/05 A3004 RMK AO2
KSLB 232155Z AUTO 12009KT 10SM FEW055 09/05 A3005 RMK AO2
KSLB 232135Z AUTO 11011KT 10SM CLR 09/06 A3005 RMK AO2
KSLB 232115Z AUTO 12009KT 10SM CLR 09/05 A3006 RMK AO2
KSLB 232055Z AUTO 13007G14KT 10SM CLR 09/05 A3006 RMK AO2
KSLB 232035Z AUTO 12013KT 10SM CLR 09/04 A3005 RMK AO2
KSLB 232015Z AUTO 13012KT 10SM FEW065 10/03 A3006 RMK AO2
KSLB 231955Z AUTO 13011KT 10SM CLR 10/04 A3006 RMK AO2
KSLB 231935Z AUTO 14013KT 10SM CLR 10/03 A3007 RMK AO2
KSLB 231915Z AUTO 14011G17KT 10SM CLR 11/04 A3008 RMK AO2
KSLB 231855Z AUTO 13012KT 10SM CLR 11/04 A3009 RMK AO2
KSLB 231835Z AUTO 14013KT 10SM CLR 10/03 A3010 RMK AO2
KSLB 231815Z AUTO 14011KT 10SM CLR 10/03 A3010 RMK AO2
KSLB 231755Z AUTO 14013KT 10SM CLR 10/04 A3011 RMK AO2
KSLB 231735Z AUTO 14015KT 10SM CLR 09/03 A3012 RMK AO2
KSLB 231715Z AUTO 15015KT 10SM CLR 09/03 A3012 RMK AO2
KSLB 231655Z AUTO 14014KT 10SM CLR 08/03 A3012 RMK AO2
KSLB 231635Z AUTO 14012KT 10SM CLR 07/03 A3013 RMK AO2
KSLB 231615Z AUTO 14013KT 10SM CLR 06/02 A3014 RMK AO2
KSLB 231555Z AUTO 15013KT 10SM CLR 06/03 A3014 RMK AO2
KSLB 231535Z AUTO 14012KT 10SM CLR 05/02 A3014 RMK AO2
KSLB 231515Z AUTO 13010KT 10SM CLR 04/02 A3014 RMK AO2
KSLB 231455Z AUTO 13011KT 10SM CLR 03/02 A3013 RMK AO2
KSLB 231435Z AUTO 13010KT 10SM CLR 02/02 A3013 RMK AO2
KSLB 231415Z AUTO 13011KT 10SM CLR 02/01 A3014 RMK AO2